sensor_id;sensor_type;location;lat;lon;timestamp;P1;durP1;ratioP1;P2;durP2;ratioP2
9836;SDS011;4957;51.412;6.724;2024-03-25T00:01:15;23.40;;;9.87;;
9836;SDS011;4957;51.412;6.724;2024-03-25T00:03:41;19.00;;;9.10;;
9836;SDS011;4957;51.412;6.724;2024-03-25T00:06:06;27.87;;;10.90;;
9836;SDS011;4957;51.412;6.724;2024-03-25T00:08:32;22.77;;;9.83;;
9836;SDS011;4957;51.412;6.724;2024-03-25T00:10:58;23.37;;;10.97;;
9836;SDS011;4957;51.412;6.724;2024-03-25T00:13:24;27.87;;;10.23;;
9836;SDS011;4957;51.412;6.724;2024-03-25T00:15:50;21.53;;;8.67;;
9836;SDS011;4957;51.412;6.724;2024-03-25T00:18:15;23.47;;;8.27;;
9836;SDS011;4957;51.412;6.724;2024-03-25T00:20:41;17.03;;;7.03;;
9836;SDS011;4957;51.412;6.724;2024-03-25T00:23:07;19.33;;;6.43;;
9836;SDS011;4957;51.412;6.724;2024-03-25T00:25:32;20.93;;;5.70;;
9836;SDS011;4957;51.412;6.724;2024-03-25T00:27:58;19.57;;;4.80;;
9836;SDS011;4957;51.412;6.724;2024-03-25T00:30:24;11.63;;;3.90;;
9836;SDS011;4957;51.412;6.724;2024-03-25T00:32:50;15.63;;;3.90;;
9836;SDS011;4957;51.412;6.724;2024-03-25T00:35:15;14.83;;;3.90;;
9836;SDS011;4957;51.412;6.724;2024-03-25T00:37:43;13.40;;;3.43;;
9836;SDS011;4957;51.412;6.724;2024-03-25T00:40:10;16.10;;;4.30;;
9836;SDS011;4957;51.412;6.724;2024-03-25T00:42:37;15.57;;;3.37;;
9836;SDS011;4957;51.412;6.724;2024-03-25T00:45:04;13.33;;;3.70;;
9836;SDS011;4957;51.412;6.724;2024-03-25T00:47:33;17.33;;;3.70;;
9836;SDS011;4957;51.412;6.724;2024-03-25T00:49:59;11.40;;;3.03;;
9836;SDS011;4957;51.412;6.724;2024-03-25T00:52:25;13.80;;;3.10;;
9836;SDS011;4957;51.412;6.724;2024-03-25T00:54:50;15.87;;;4.30;;
9836;SDS011;4957;51.412;6.724;2024-03-25T00:57:16;13.20;;;3.30;;
9836;SDS011;4957;51.412;6.724;2024-03-25T00:59:43;12.10;;;2.73;;
9836;SDS011;4957;51.412;6.724;2024-03-25T01:02:09;15.53;;;2.77;;
9836;SDS011;4957;51.412;6.724;2024-03-25T01:04:35;11.87;;;2.93;;
9836;SDS011;4957;51.412;6.724;2024-03-25T01:07:01;19.07;;;3.50;;
9836;SDS011;4957;51.412;6.724;2024-03-25T01:09:28;14.00;;;3.10;;
9836;SDS011;4957;51.412;6.724;2024-03-25T01:11:55;17.07;;;3.70;;
9836;SDS011;4957;51.412;6.724;2024-03-25T01:14:20;13.10;;;3.00;;
9836;SDS011;4957;51.412;6.724;2024-03-25T01:16:46;13.03;;;3.10;;
9836;SDS011;4957;51.412;6.724;2024-03-25T01:19:12;9.90;;;2.50;;
9836;SDS011;4957;51.412;6.724;2024-03-25T01:21:38;13.17;;;3.30;;
9836;SDS011;4957;51.412;6.724;2024-03-25T01:24:04;13.43;;;2.93;;
9836;SDS011;4957;51.412;6.724;2024-03-25T01:26:29;14.63;;;3.40;;
9836;SDS011;4957;51.412;6.724;2024-03-25T01:28:55;13.80;;;3.07;;
9836;SDS011;4957;51.412;6.724;2024-03-25T01:31:21;16.63;;;3.33;;
9836;SDS011;4957;51.412;6.724;2024-03-25T01:33:47;18.67;;;3.90;;
9836;SDS011;4957;51.412;6.724;2024-03-25T01:36:12;11.33;;;3.20;;
9836;SDS011;4957;51.412;6.724;2024-03-25T01:38:42;15.73;;;3.00;;
9836;SDS011;4957;51.412;6.724;2024-03-25T01:41:09;14.70;;;3.07;;
9836;SDS011;4957;51.412;6.724;2024-03-25T01:43:36;9.23;;;3.03;;
9836;SDS011;4957;51.412;6.724;2024-03-25T01:46:02;10.10;;;3.20;;
9836;SDS011;4957;51.412;6.724;2024-03-25T01:48:28;13.67;;;3.07;;
9836;SDS011;4957;51.412;6.724;2024-03-25T01:50:54;11.77;;;2.93;;
9836;SDS011;4957;51.412;6.724;2024-03-25T01:53:21;13.37;;;2.93;;
9836;SDS011;4957;51.412;6.724;2024-03-25T01:55:48;9.83;;;3.13;;
9836;SDS011;4957;51.412;6.724;2024-03-25T01:58:19;24.67;;;3.30;;
9836;SDS011;4957;51.412;6.724;2024-03-25T02:00:44;15.03;;;3.10;;
9836;SDS011;4957;51.412;6.724;2024-03-25T02:03:10;14.13;;;3.03;;
9836;SDS011;4957;51.412;6.724;2024-03-25T02:05:36;12.63;;;3.20;;
9836;SDS011;4957;51.412;6.724;2024-03-25T02:08:03;12.20;;;2.70;;
9836;SDS011;4957;51.412;6.724;2024-03-25T02:10:29;10.30;;;2.90;;
9836;SDS011;4957;51.412;6.724;2024-03-25T02:12:55;13.70;;;3.40;;
9836;SDS011;4957;51.412;6.724;2024-03-25T02:15:21;12.10;;;2.77;;
9836;SDS011;4957;51.412;6.724;2024-03-25T02:17:47;13.13;;;2.80;;
9836;SDS011;4957;51.412;6.724;2024-03-25T02:20:14;13.93;;;3.30;;
9836;SDS011;4957;51.412;6.724;2024-03-25T02:22:41;10.83;;;2.93;;
9836;SDS011;4957;51.412;6.724;2024-03-25T02:25:07;17.53;;;3.57;;
9836;SDS011;4957;51.412;6.724;2024-03-25T02:27:37;15.77;;;3.63;;
9836;SDS011;4957;51.412;6.724;2024-03-25T02:30:04;13.30;;;3.87;;
9836;SDS011;4957;51.412;6.724;2024-03-25T02:32:35;9.33;;;3.50;;
9836;SDS011;4957;51.412;6.724;2024-03-25T02:35:02;15.07;;;3.03;;
9836;SDS011;4957;51.412;6.724;2024-03-25T02:37:30;16.83;;;3.60;;
9836;SDS011;4957;51.412;6.724;2024-03-25T02:39:57;13.20;;;3.77;;
9836;SDS011;4957;51.412;6.724;2024-03-25T02:42:27;13.70;;;3.77;;
9836;SDS011;4957;51.412;6.724;2024-03-25T02:44:56;13.90;;;4.00;;
9836;SDS011;4957;51.412;6.724;2024-03-25T02:47:23;12.70;;;3.23;;
9836;SDS011;4957;51.412;6.724;2024-03-25T02:49:50;12.33;;;3.50;;
9836;SDS011;4957;51.412;6.724;2024-03-25T02:52:16;10.40;;;3.80;;
9836;SDS011;4957;51.412;6.724;2024-03-25T02:54:43;14.00;;;3.97;;
9836;SDS011;4957;51.412;6.724;2024-03-25T02:57:09;18.47;;;4.50;;
9836;SDS011;4957;51.412;6.724;2024-03-25T02:59:35;9.63;;;3.57;;
9836;SDS011;4957;51.412;6.724;2024-03-25T03:02:00;12.87;;;3.67;;
9836;SDS011;4957;51.412;6.724;2024-03-25T03:04:26;12.73;;;4.33;;
9836;SDS011;4957;51.412;6.724;2024-03-25T03:06:52;17.03;;;4.50;;
9836;SDS011;4957;51.412;6.724;2024-03-25T03:09:18;11.73;;;3.73;;
9836;SDS011;4957;51.412;6.724;2024-03-25T03:11:44;18.27;;;4.30;;
9836;SDS011;4957;51.412;6.724;2024-03-25T03:14:09;18.40;;;4.50;;
9836;SDS011;4957;51.412;6.724;2024-03-25T03:16:35;13.67;;;4.13;;
9836;SDS011;4957;51.412;6.724;2024-03-25T03:19:01;10.93;;;4.00;;
9836;SDS011;4957;51.412;6.724;2024-03-25T03:21:27;12.10;;;4.03;;
9836;SDS011;4957;51.412;6.724;2024-03-25T03:23:53;13.50;;;4.13;;
9836;SDS011;4957;51.412;6.724;2024-03-25T03:26:18;10.43;;;3.83;;
9836;SDS011;4957;51.412;6.724;2024-03-25T03:28:44;24.83;;;4.43;;
9836;SDS011;4957;51.412;6.724;2024-03-25T03:31:10;13.20;;;3.47;;
9836;SDS011;4957;51.412;6.724;2024-03-25T03:33:36;17.93;;;4.23;;
9836;SDS011;4957;51.412;6.724;2024-03-25T03:36:01;10.87;;;4.17;;
9836;SDS011;4957;51.412;6.724;2024-03-25T03:38:27;14.40;;;4.60;;
9836;SDS011;4957;51.412;6.724;2024-03-25T03:40:59;18.60;;;4.13;;
9836;SDS011;4957;51.412;6.724;2024-03-25T03:43:27;14.73;;;4.67;;
9836;SDS011;4957;51.412;6.724;2024-03-25T03:45:53;20.37;;;4.17;;
9836;SDS011;4957;51.412;6.724;2024-03-25T03:48:18;17.13;;;4.23;;
9836;SDS011;4957;51.412;6.724;2024-03-25T03:50:45;18.00;;;5.20;;
9836;SDS011;4957;51.412;6.724;2024-03-25T03:53:11;16.60;;;4.17;;
9836;SDS011;4957;51.412;6.724;2024-03-25T03:55:37;14.63;;;4.00;;
9836;SDS011;4957;51.412;6.724;2024-03-25T03:58:03;12.57;;;3.77;;
9836;SDS011;4957;51.412;6.724;2024-03-25T04:00:32;17.57;;;4.70;;
9836;SDS011;4957;51.412;6.724;2024-03-25T04:02:59;12.00;;;4.27;;
9836;SDS011;4957;51.412;6.724;2024-03-25T04:05:27;20.57;;;4.90;;
9836;SDS011;4957;51.412;6.724;2024-03-25T04:07:54;12.27;;;3.80;;
9836;SDS011;4957;51.412;6.724;2024-03-25T04:10:20;16.23;;;5.17;;
9836;SDS011;4957;51.412;6.724;2024-03-25T04:12:46;12.30;;;3.77;;
9836;SDS011;4957;51.412;6.724;2024-03-25T04:15:12;21.30;;;4.37;;
9836;SDS011;4957;51.412;6.724;2024-03-25T04:17:42;15.00;;;3.57;;
9836;SDS011;4957;51.412;6.724;2024-03-25T04:20:12;19.13;;;4.80;;
9836;SDS011;4957;51.412;6.724;2024-03-25T04:22:41;13.07;;;4.23;;
9836;SDS011;4957;51.412;6.724;2024-03-25T04:25:08;18.27;;;4.43;;
9836;SDS011;4957;51.412;6.724;2024-03-25T04:27:40;20.23;;;4.47;;
9836;SDS011;4957;51.412;6.724;2024-03-25T04:30:06;13.23;;;3.87;;
9836;SDS011;4957;51.412;6.724;2024-03-25T04:32:33;14.40;;;4.33;;
9836;SDS011;4957;51.412;6.724;2024-03-25T04:35:00;11.83;;;4.63;;
9836;SDS011;4957;51.412;6.724;2024-03-25T04:37:27;19.80;;;4.80;;
9836;SDS011;4957;51.412;6.724;2024-03-25T04:39:53;17.57;;;4.10;;
9836;SDS011;4957;51.412;6.724;2024-03-25T04:42:19;17.43;;;4.87;;
9836;SDS011;4957;51.412;6.724;2024-03-25T04:44:46;18.50;;;4.70;;
9836;SDS011;4957;51.412;6.724;2024-03-25T04:47:11;27.73;;;4.80;;
9836;SDS011;4957;51.412;6.724;2024-03-25T04:49:37;15.70;;;4.03;;
9836;SDS011;4957;51.412;6.724;2024-03-25T04:52:04;17.33;;;5.30;;
9836;SDS011;4957;51.412;6.724;2024-03-25T04:54:29;15.43;;;4.47;;
9836;SDS011;4957;51.412;6.724;2024-03-25T04:56:55;12.00;;;4.40;;
9836;SDS011;4957;51.412;6.724;2024-03-25T04:59:21;15.13;;;4.40;;
9836;SDS011;4957;51.412;6.724;2024-03-25T05:01:47;16.00;;;5.00;;
9836;SDS011;4957;51.412;6.724;2024-03-25T05:04:13;12.53;;;3.87;;
9836;SDS011;4957;51.412;6.724;2024-03-25T05:06:38;16.43;;;4.70;;
9836;SDS011;4957;51.412;6.724;2024-03-25T05:09:04;17.33;;;5.20;;
9836;SDS011;4957;51.412;6.724;2024-03-25T05:11:32;16.77;;;4.70;;
9836;SDS011;4957;51.412;6.724;2024-03-25T05:13:58;17.67;;;5.47;;
9836;SDS011;4957;51.412;6.724;2024-03-25T05:16:24;18.07;;;4.87;;
9836;SDS011;4957;51.412;6.724;2024-03-25T05:18:50;20.17;;;5.43;;
9836;SDS011;4957;51.412;6.724;2024-03-25T05:21:16;19.60;;;4.53;;
9836;SDS011;4957;51.412;6.724;2024-03-25T05:23:41;17.00;;;4.83;;
9836;SDS011;4957;51.412;6.724;2024-03-25T05:26:07;22.97;;;5.37;;
9836;SDS011;4957;51.412;6.724;2024-03-25T05:28:33;21.53;;;5.33;;
9836;SDS011;4957;51.412;6.724;2024-03-25T05:31:07;17.70;;;4.80;;
9836;SDS011;4957;51.412;6.724;2024-03-25T05:33:34;17.20;;;4.47;;
9836;SDS011;4957;51.412;6.724;2024-03-25T05:36:00;13.67;;;5.60;;
9836;SDS011;4957;51.412;6.724;2024-03-25T05:38:26;11.87;;;4.27;;
9836;SDS011;4957;51.412;6.724;2024-03-25T05:40:52;20.47;;;5.47;;
9836;SDS011;4957;51.412;6.724;2024-03-25T05:43:18;21.77;;;5.80;;
9836;SDS011;4957;51.412;6.724;2024-03-25T05:45:54;16.87;;;5.37;;
9836;SDS011;4957;51.412;6.724;2024-03-25T05:48:21;20.20;;;5.83;;
9836;SDS011;4957;51.412;6.724;2024-03-25T05:51:03;22.57;;;5.17;;
9836;SDS011;4957;51.412;6.724;2024-03-25T05:53:30;18.30;;;5.37;;
9836;SDS011;4957;51.412;6.724;2024-03-25T05:55:56;18.47;;;5.37;;
9836;SDS011;4957;51.412;6.724;2024-03-25T05:58:24;17.97;;;4.83;;
9836;SDS011;4957;51.412;6.724;2024-03-25T06:00:50;21.40;;;5.37;;
9836;SDS011;4957;51.412;6.724;2024-03-25T06:03:18;12.80;;;5.57;;
9836;SDS011;4957;51.412;6.724;2024-03-25T06:05:44;18.97;;;5.47;;
9836;SDS011;4957;51.412;6.724;2024-03-25T06:08:09;24.10;;;5.93;;
9836;SDS011;4957;51.412;6.724;2024-03-25T06:10:43;24.30;;;5.73;;
9836;SDS011;4957;51.412;6.724;2024-03-25T06:13:09;20.50;;;6.13;;
9836;SDS011;4957;51.412;6.724;2024-03-25T06:15:35;24.47;;;6.40;;
9836;SDS011;4957;51.412;6.724;2024-03-25T06:18:01;14.33;;;5.93;;
9836;SDS011;4957;51.412;6.724;2024-03-25T06:20:26;17.50;;;5.67;;
9836;SDS011;4957;51.412;6.724;2024-03-25T06:22:52;17.10;;;5.73;;
9836;SDS011;4957;51.412;6.724;2024-03-25T06:25:18;18.03;;;5.53;;
9836;SDS011;4957;51.412;6.724;2024-03-25T06:27:44;17.80;;;4.73;;
9836;SDS011;4957;51.412;6.724;2024-03-25T06:30:10;13.93;;;5.67;;
9836;SDS011;4957;51.412;6.724;2024-03-25T06:32:54;19.60;;;4.70;;
9836;SDS011;4957;51.412;6.724;2024-03-25T06:35:39;20.57;;;6.47;;
9836;SDS011;4957;51.412;6.724;2024-03-25T06:38:08;19.40;;;6.33;;
9836;SDS011;4957;51.412;6.724;2024-03-25T06:40:34;21.93;;;5.77;;
9836;SDS011;4957;51.412;6.724;2024-03-25T06:43:00;21.97;;;6.33;;
9836;SDS011;4957;51.412;6.724;2024-03-25T06:45:26;19.53;;;6.60;;
9836;SDS011;4957;51.412;6.724;2024-03-25T06:47:52;25.30;;;8.53;;
9836;SDS011;4957;51.412;6.724;2024-03-25T06:50:17;26.73;;;8.73;;
9836;SDS011;4957;51.412;6.724;2024-03-25T06:52:43;33.80;;;10.23;;
9836;SDS011;4957;51.412;6.724;2024-03-25T06:55:09;39.57;;;11.17;;
9836;SDS011;4957;51.412;6.724;2024-03-25T06:57:35;39.97;;;11.60;;
9836;SDS011;4957;51.412;6.724;2024-03-25T07:00:00;36.73;;;11.37;;
9836;SDS011;4957;51.412;6.724;2024-03-25T07:02:26;31.83;;;10.83;;
9836;SDS011;4957;51.412;6.724;2024-03-25T07:04:52;34.13;;;10.03;;
9836;SDS011;4957;51.412;6.724;2024-03-25T07:07:18;37.93;;;11.63;;
9836;SDS011;4957;51.412;6.724;2024-03-25T07:09:43;45.40;;;13.13;;
9836;SDS011;4957;51.412;6.724;2024-03-25T07:12:09;51.60;;;13.83;;
9836;SDS011;4957;51.412;6.724;2024-03-25T07:14:35;49.60;;;16.43;;
9836;SDS011;4957;51.412;6.724;2024-03-25T07:17:00;54.90;;;17.03;;
9836;SDS011;4957;51.412;6.724;2024-03-25T07:19:26;49.33;;;16.27;;
9836;SDS011;4957;51.412;6.724;2024-03-25T07:21:52;45.30;;;16.07;;
9836;SDS011;4957;51.412;6.724;2024-03-25T07:24:17;48.77;;;15.67;;
9836;SDS011;4957;51.412;6.724;2024-03-25T07:26:44;45.53;;;15.50;;
9836;SDS011;4957;51.412;6.724;2024-03-25T07:29:10;40.20;;;13.43;;
9836;SDS011;4957;51.412;6.724;2024-03-25T07:31:35;41.07;;;12.70;;
9836;SDS011;4957;51.412;6.724;2024-03-25T07:34:01;54.03;;;13.47;;
9836;SDS011;4957;51.412;6.724;2024-03-25T07:36:27;45.17;;;13.43;;
9836;SDS011;4957;51.412;6.724;2024-03-25T07:38:58;42.37;;;13.20;;
9836;SDS011;4957;51.412;6.724;2024-03-25T07:41:23;38.07;;;12.07;;
9836;SDS011;4957;51.412;6.724;2024-03-25T07:43:49;36.37;;;11.57;;
9836;SDS011;4957;51.412;6.724;2024-03-25T07:46:15;34.37;;;11.60;;
9836;SDS011;4957;51.412;6.724;2024-03-25T07:48:40;41.70;;;11.47;;
9836;SDS011;4957;51.412;6.724;2024-03-25T07:51:07;30.97;;;10.17;;
9836;SDS011;4957;51.412;6.724;2024-03-25T07:53:33;34.60;;;9.47;;
9836;SDS011;4957;51.412;6.724;2024-03-25T07:55:59;25.13;;;8.83;;
9836;SDS011;4957;51.412;6.724;2024-03-25T07:58:25;22.30;;;7.33;;
9836;SDS011;4957;51.412;6.724;2024-03-25T08:00:50;29.00;;;8.03;;
9836;SDS011;4957;51.412;6.724;2024-03-25T08:03:16;23.90;;;7.93;;
9836;SDS011;4957;51.412;6.724;2024-03-25T08:05:42;23.60;;;8.40;;
9836;SDS011;4957;51.412;6.724;2024-03-25T08:08:08;26.67;;;7.77;;
9836;SDS011;4957;51.412;6.724;2024-03-25T08:10:34;18.13;;;6.77;;
9836;SDS011;4957;51.412;6.724;2024-03-25T08:12:59;29.70;;;7.27;;
9836;SDS011;4957;51.412;6.724;2024-03-25T08:15:25;20.67;;;5.93;;
9836;SDS011;4957;51.412;6.724;2024-03-25T08:17:51;19.20;;;5.47;;
9836;SDS011;4957;51.412;6.724;2024-03-25T08:20:18;30.87;;;6.23;;
9836;SDS011;4957;51.412;6.724;2024-03-25T08:22:44;22.37;;;5.50;;
9836;SDS011;4957;51.412;6.724;2024-03-25T08:25:10;19.80;;;5.10;;
9836;SDS011;4957;51.412;6.724;2024-03-25T08:27:37;17.70;;;5.10;;
9836;SDS011;4957;51.412;6.724;2024-03-25T08:30:03;14.07;;;4.80;;
9836;SDS011;4957;51.412;6.724;2024-03-25T08:32:29;17.37;;;3.80;;
9836;SDS011;4957;51.412;6.724;2024-03-25T08:34:55;17.50;;;5.43;;
9836;SDS011;4957;51.412;6.724;2024-03-25T08:37:20;13.20;;;4.47;;
9836;SDS011;4957;51.412;6.724;2024-03-25T08:39:46;15.57;;;5.50;;
9836;SDS011;4957;51.412;6.724;2024-03-25T08:42:12;12.13;;;4.83;;
9836;SDS011;4957;51.412;6.724;2024-03-25T08:44:37;14.77;;;5.30;;
9836;SDS011;4957;51.412;6.724;2024-03-25T08:47:03;14.23;;;5.00;;
9836;SDS011;4957;51.412;6.724;2024-03-25T08:49:29;12.73;;;4.97;;
9836;SDS011;4957;51.412;6.724;2024-03-25T08:51:55;17.00;;;5.77;;
9836;SDS011;4957;51.412;6.724;2024-03-25T08:54:20;13.70;;;5.17;;
9836;SDS011;4957;51.412;6.724;2024-03-25T08:56:46;14.77;;;5.20;;
9836;SDS011;4957;51.412;6.724;2024-03-25T08:59:12;12.23;;;4.73;;
9836;SDS011;4957;51.412;6.724;2024-03-25T09:01:38;14.47;;;4.83;;
9836;SDS011;4957;51.412;6.724;2024-03-25T09:04:03;14.43;;;5.03;;
9836;SDS011;4957;51.412;6.724;2024-03-25T09:06:29;12.63;;;4.40;;
9836;SDS011;4957;51.412;6.724;2024-03-25T09:08:55;14.83;;;4.87;;
9836;SDS011;4957;51.412;6.724;2024-03-25T09:11:39;16.30;;;4.43;;
9836;SDS011;4957;51.412;6.724;2024-03-25T09:14:05;12.40;;;5.27;;
9836;SDS011;4957;51.412;6.724;2024-03-25T09:16:31;12.97;;;4.60;;
9836;SDS011;4957;51.412;6.724;2024-03-25T09:18:57;13.63;;;5.00;;
9836;SDS011;4957;51.412;6.724;2024-03-25T09:21:23;8.80;;;2.60;;
9836;SDS011;4957;51.412;6.724;2024-03-25T09:23:49;10.57;;;2.83;;
9836;SDS011;4957;51.412;6.724;2024-03-25T09:26:15;11.37;;;2.70;;
9836;SDS011;4957;51.412;6.724;2024-03-25T09:28:41;10.67;;;2.83;;
9836;SDS011;4957;51.412;6.724;2024-03-25T09:31:07;8.60;;;3.07;;
9836;SDS011;4957;51.412;6.724;2024-03-25T09:33:32;11.83;;;3.53;;
9836;SDS011;4957;51.412;6.724;2024-03-25T09:35:58;12.03;;;2.93;;
9836;SDS011;4957;51.412;6.724;2024-03-25T09:38:25;11.17;;;3.13;;
9836;SDS011;4957;51.412;6.724;2024-03-25T09:40:52;9.37;;;3.23;;
9836;SDS011;4957;51.412;6.724;2024-03-25T09:45:58;12.47;;;3.30;;
9836;SDS011;4957;51.412;6.724;2024-03-25T09:48:24;8.07;;;3.00;;
9836;SDS011;4957;51.412;6.724;2024-03-25T09:50:51;13.30;;;3.20;;
9836;SDS011;4957;51.412;6.724;2024-03-25T09:53:18;11.90;;;2.83;;
9836;SDS011;4957;51.412;6.724;2024-03-25T09:55:46;11.53;;;3.10;;
9836;SDS011;4957;51.412;6.724;2024-03-25T09:58:12;9.80;;;3.07;;
9836;SDS011;4957;51.412;6.724;2024-03-25T10:00:40;20.13;;;5.97;;
9836;SDS011;4957;51.412;6.724;2024-03-25T10:03:06;12.50;;;4.90;;
9836;SDS011;4957;51.412;6.724;2024-03-25T10:05:31;8.60;;;3.60;;
9836;SDS011;4957;51.412;6.724;2024-03-25T10:07:58;11.07;;;3.27;;
9836;SDS011;4957;51.412;6.724;2024-03-25T10:10:23;13.30;;;3.37;;
9836;SDS011;4957;51.412;6.724;2024-03-25T10:12:50;9.50;;;2.87;;
9836;SDS011;4957;51.412;6.724;2024-03-25T10:15:16;7.00;;;3.00;;
9836;SDS011;4957;51.412;6.724;2024-03-25T10:17:42;9.87;;;2.73;;
9836;SDS011;4957;51.412;6.724;2024-03-25T10:20:18;10.43;;;2.87;;
9836;SDS011;4957;51.412;6.724;2024-03-25T10:22:44;6.27;;;2.53;;
9836;SDS011;4957;51.412;6.724;2024-03-25T10:27:56;14.07;;;3.50;;
9836;SDS011;4957;51.412;6.724;2024-03-25T10:30:23;10.10;;;4.00;;
9836;SDS011;4957;51.412;6.724;2024-03-25T10:32:58;9.50;;;4.27;;
9836;SDS011;4957;51.412;6.724;2024-03-25T10:35:29;13.50;;;4.13;;
9836;SDS011;4957;51.412;6.724;2024-03-25T10:37:58;9.23;;;3.87;;
9836;SDS011;4957;51.412;6.724;2024-03-25T10:40:30;10.40;;;3.70;;
9836;SDS011;4957;51.412;6.724;2024-03-25T10:43:01;11.93;;;3.73;;
9836;SDS011;4957;51.412;6.724;2024-03-25T10:45:34;12.87;;;3.40;;
9836;SDS011;4957;51.412;6.724;2024-03-25T10:48:27;11.00;;;3.50;;
9836;SDS011;4957;51.412;6.724;2024-03-25T10:50:56;7.97;;;3.10;;
9836;SDS011;4957;51.412;6.724;2024-03-25T10:53:23;7.67;;;2.97;;
9836;SDS011;4957;51.412;6.724;2024-03-25T10:55:53;10.20;;;3.03;;
9836;SDS011;4957;51.412;6.724;2024-03-25T10:58:23;11.87;;;2.93;;
9836;SDS011;4957;51.412;6.724;2024-03-25T11:00:49;9.23;;;3.10;;
9836;SDS011;4957;51.412;6.724;2024-03-25T11:03:18;8.23;;;2.83;;
9836;SDS011;4957;51.412;6.724;2024-03-25T11:05:46;8.37;;;2.53;;
9836;SDS011;4957;51.412;6.724;2024-03-25T11:08:12;8.10;;;2.90;;
9836;SDS011;4957;51.412;6.724;2024-03-25T11:10:40;7.00;;;2.93;;
9836;SDS011;4957;51.412;6.724;2024-03-25T11:13:16;6.87;;;3.30;;
9836;SDS011;4957;51.412;6.724;2024-03-25T11:15:47;10.73;;;4.77;;
9836;SDS011;4957;51.412;6.724;2024-03-25T11:18:17;14.47;;;4.70;;
9836;SDS011;4957;51.412;6.724;2024-03-25T11:21:00;9.10;;;3.80;;
9836;SDS011;4957;51.412;6.724;2024-03-25T11:23:34;15.40;;;4.63;;
9836;SDS011;4957;51.412;6.724;2024-03-25T11:26:01;11.90;;;4.50;;
9836;SDS011;4957;51.412;6.724;2024-03-25T11:28:27;10.03;;;4.23;;
9836;SDS011;4957;51.412;6.724;2024-03-25T11:30:55;10.17;;;4.40;;
9836;SDS011;4957;51.412;6.724;2024-03-25T11:33:21;15.20;;;5.90;;
9836;SDS011;4957;51.412;6.724;2024-03-25T11:35:50;16.00;;;5.20;;
9836;SDS011;4957;51.412;6.724;2024-03-25T11:38:16;11.43;;;4.27;;
9836;SDS011;4957;51.412;6.724;2024-03-25T11:40:42;10.23;;;3.87;;
9836;SDS011;4957;51.412;6.724;2024-03-25T11:43:10;13.90;;;5.43;;
9836;SDS011;4957;51.412;6.724;2024-03-25T11:45:42;12.87;;;5.27;;
9836;SDS011;4957;51.412;6.724;2024-03-25T11:48:08;11.70;;;4.10;;
9836;SDS011;4957;51.412;6.724;2024-03-25T11:50:34;10.30;;;4.27;;
9836;SDS011;4957;51.412;6.724;2024-03-25T11:53:03;13.73;;;4.70;;
9836;SDS011;4957;51.412;6.724;2024-03-25T11:55:30;13.63;;;5.93;;
9836;SDS011;4957;51.412;6.724;2024-03-25T11:57:56;14.97;;;5.53;;
9836;SDS011;4957;51.412;6.724;2024-03-25T12:00:22;8.67;;;3.93;;
9836;SDS011;4957;51.412;6.724;2024-03-25T12:02:48;13.47;;;4.70;;
9836;SDS011;4957;51.412;6.724;2024-03-25T12:05:14;9.53;;;4.47;;
9836;SDS011;4957;51.412;6.724;2024-03-25T12:07:40;9.60;;;3.87;;
9836;SDS011;4957;51.412;6.724;2024-03-25T12:10:06;8.70;;;3.67;;
9836;SDS011;4957;51.412;6.724;2024-03-25T12:12:50;8.40;;;3.87;;
9836;SDS011;4957;51.412;6.724;2024-03-25T12:15:16;10.33;;;3.30;;
9836;SDS011;4957;51.412;6.724;2024-03-25T12:17:42;10.17;;;3.83;;
9836;SDS011;4957;51.412;6.724;2024-03-25T12:20:08;10.03;;;3.30;;
9836;SDS011;4957;51.412;6.724;2024-03-25T12:22:36;8.43;;;3.17;;
9836;SDS011;4957;51.412;6.724;2024-03-25T12:25:03;7.50;;;3.00;;
9836;SDS011;4957;51.412;6.724;2024-03-25T12:27:31;5.80;;;2.70;;
9836;SDS011;4957;51.412;6.724;2024-03-25T12:30:01;6.03;;;2.90;;
9836;SDS011;4957;51.412;6.724;2024-03-25T12:32:38;6.73;;;3.13;;
9836;SDS011;4957;51.412;6.724;2024-03-25T12:35:08;8.93;;;3.20;;
9836;SDS011;4957;51.412;6.724;2024-03-25T12:37:38;11.80;;;3.50;;
9836;SDS011;4957;51.412;6.724;2024-03-25T12:40:05;9.80;;;3.10;;
9836;SDS011;4957;51.412;6.724;2024-03-25T12:42:33;7.47;;;3.13;;
9836;SDS011;4957;51.412;6.724;2024-03-25T12:44:59;9.77;;;3.10;;
9836;SDS011;4957;51.412;6.724;2024-03-25T12:47:25;7.20;;;3.73;;
9836;SDS011;4957;51.412;6.724;2024-03-25T12:49:51;5.73;;;2.80;;
9836;SDS011;4957;51.412;6.724;2024-03-25T12:52:17;7.43;;;2.37;;
9836;SDS011;4957;51.412;6.724;2024-03-25T12:54:42;11.90;;;3.20;;
9836;SDS011;4957;51.412;6.724;2024-03-25T12:57:08;8.00;;;3.10;;
9836;SDS011;4957;51.412;6.724;2024-03-25T12:59:34;7.33;;;3.30;;
9836;SDS011;4957;51.412;6.724;2024-03-25T13:02:00;5.17;;;2.53;;
9836;SDS011;4957;51.412;6.724;2024-03-25T13:04:26;6.13;;;2.80;;
9836;SDS011;4957;51.412;6.724;2024-03-25T13:06:52;7.33;;;3.50;;
9836;SDS011;4957;51.412;6.724;2024-03-25T13:09:17;5.87;;;2.47;;
9836;SDS011;4957;51.412;6.724;2024-03-25T13:11:43;5.33;;;2.57;;
9836;SDS011;4957;51.412;6.724;2024-03-25T13:14:11;5.27;;;2.73;;
9836;SDS011;4957;51.412;6.724;2024-03-25T13:16:38;7.40;;;2.83;;
9836;SDS011;4957;51.412;6.724;2024-03-25T13:19:04;4.73;;;2.43;;
9836;SDS011;4957;51.412;6.724;2024-03-25T13:21:30;7.23;;;3.00;;
9836;SDS011;4957;51.412;6.724;2024-03-25T13:23:56;8.17;;;3.30;;
9836;SDS011;4957;51.412;6.724;2024-03-25T13:26:21;9.77;;;2.90;;
9836;SDS011;4957;51.412;6.724;2024-03-25T13:28:47;7.93;;;3.53;;
9836;SDS011;4957;51.412;6.724;2024-03-25T13:31:13;3.97;;;2.47;;
9836;SDS011;4957;51.412;6.724;2024-03-25T13:33:39;5.53;;;2.97;;
9836;SDS011;4957;51.412;6.724;2024-03-25T13:36:05;8.10;;;2.90;;
9836;SDS011;4957;51.412;6.724;2024-03-25T13:38:31;7.70;;;2.83;;
9836;SDS011;4957;51.412;6.724;2024-03-25T13:40:59;5.97;;;3.10;;
9836;SDS011;4957;51.412;6.724;2024-03-25T13:43:25;6.27;;;3.13;;
9836;SDS011;4957;51.412;6.724;2024-03-25T13:45:51;8.30;;;3.50;;
9836;SDS011;4957;51.412;6.724;2024-03-25T13:48:17;6.27;;;3.27;;
9836;SDS011;4957;51.412;6.724;2024-03-25T13:50:43;5.20;;;2.73;;
9836;SDS011;4957;51.412;6.724;2024-03-25T13:53:09;6.23;;;2.93;;
9836;SDS011;4957;51.412;6.724;2024-03-25T13:55:35;7.30;;;2.80;;
9836;SDS011;4957;51.412;6.724;2024-03-25T13:58:01;5.10;;;2.80;;
9836;SDS011;4957;51.412;6.724;2024-03-25T14:00:27;5.23;;;2.80;;
9836;SDS011;4957;51.412;6.724;2024-03-25T14:02:53;7.20;;;2.60;;
9836;SDS011;4957;51.412;6.724;2024-03-25T14:05:20;5.47;;;2.53;;
9836;SDS011;4957;51.412;6.724;2024-03-25T14:07:48;6.93;;;2.60;;
9836;SDS011;4957;51.412;6.724;2024-03-25T14:10:14;4.03;;;2.40;;
9836;SDS011;4957;51.412;6.724;2024-03-25T14:12:41;8.50;;;2.67;;
9836;SDS011;4957;51.412;6.724;2024-03-25T14:15:07;5.27;;;2.60;;
9836;SDS011;4957;51.412;6.724;2024-03-25T14:17:33;6.43;;;2.37;;
9836;SDS011;4957;51.412;6.724;2024-03-25T14:19:59;4.00;;;2.40;;
9836;SDS011;4957;51.412;6.724;2024-03-25T14:22:24;5.27;;;2.40;;
9836;SDS011;4957;51.412;6.724;2024-03-25T14:24:50;7.10;;;2.37;;
9836;SDS011;4957;51.412;6.724;2024-03-25T14:27:21;6.13;;;2.53;;
9836;SDS011;4957;51.412;6.724;2024-03-25T14:29:47;7.67;;;2.37;;
9836;SDS011;4957;51.412;6.724;2024-03-25T14:32:13;5.60;;;2.50;;
9836;SDS011;4957;51.412;6.724;2024-03-25T14:34:39;4.73;;;2.40;;
9836;SDS011;4957;51.412;6.724;2024-03-25T14:37:04;6.17;;;2.03;;
9836;SDS011;4957;51.412;6.724;2024-03-25T14:39:30;5.20;;;1.97;;
9836;SDS011;4957;51.412;6.724;2024-03-25T14:41:56;3.83;;;2.00;;
9836;SDS011;4957;51.412;6.724;2024-03-25T14:44:22;5.60;;;1.80;;
9836;SDS011;4957;51.412;6.724;2024-03-25T14:46:48;5.60;;;1.57;;
9836;SDS011;4957;51.412;6.724;2024-03-25T14:49:13;4.20;;;1.90;;
9836;SDS011;4957;51.412;6.724;2024-03-25T14:51:39;3.43;;;1.90;;
9836;SDS011;4957;51.412;6.724;2024-03-25T14:54:06;3.87;;;2.00;;
9836;SDS011;4957;51.412;6.724;2024-03-25T14:56:32;3.83;;;1.40;;
9836;SDS011;4957;51.412;6.724;2024-03-25T14:58:57;2.53;;;1.60;;
9836;SDS011;4957;51.412;6.724;2024-03-25T15:01:24;4.37;;;2.00;;
9836;SDS011;4957;51.412;6.724;2024-03-25T15:03:50;5.63;;;2.03;;
9836;SDS011;4957;51.412;6.724;2024-03-25T15:06:15;4.77;;;1.80;;
9836;SDS011;4957;51.412;6.724;2024-03-25T15:08:41;6.70;;;1.97;;